Time;durP1;ratioP1;P1;durP2;ratioP2;P2;SDS_P1;SDS_P2;PMS_P1;PMS_P2;Temp;Humidity;BMP_temperature;BMP_pressure;BME280_temperature;BME280_humidity;BME280_pressure;Samples;Min_cycle;Max_cycle;Signal;HPM_P1;HPM_P2
2022/05/08 00:01:57;;;;;;;1.20;0.40;;;8.50;99.90;;;;;;5059681;28;20022;-67
2022/05/08 00:04:23;;;;;;;0.85;0.30;;;8.40;99.90;;;;;;5060598;28;20029;-67
2022/05/08 00:06:49;;;;;;;0.73;0.30;;;8.40;99.90;;;;;;5058585;28;20489;-67
2022/05/08 00:09:15;;;;;;;1.05;0.40;;;8.30;99.90;;;;;;5058830;28;20021;-67
2022/05/08 00:11:41;;;;;;;0.90;0.30;;;8.30;99.90;;;;;;5061839;28;20493;-67
2022/05/08 00:14:07;;;;;;;0.60;0.30;;;8.30;99.90;;;;;;5063141;28;20085;-67
2022/05/08 00:16:32;;;;;;;0.38;0.22;;;8.20;99.90;;;;;;5064457;28;20052;-67
2022/05/08 00:18:58;;;;;;;0.60;0.30;;;8.10;99.90;;;;;;5062643;28;20045;-67
2022/05/08 00:21:24;;;;;;;0.85;0.30;;;8.00;99.90;;;;;;5063779;28;20114;-67
2022/05/08 00:23:49;;;;;;;0.68;0.30;;;8.00;99.90;;;;;;5063288;28;20025;-66
2022/05/08 00:26:16;;;;;;;0.20;0.20;;;8.00;99.90;;;;;;5063511;28;20367;-67
2022/05/08 00:28:41;;;;;;;0.98;0.40;;;7.90;99.90;;;;;;5062534;28;20033;-67
2022/05/08 00:31:11;;;;;;;0.93;0.30;;;7.90;99.90;;;;;;5062984;28;20025;-66
2022/05/08 00:33:38;;;;;;;0.28;0.20;;;7.80;99.90;;;;;;5064047;28;20062;-66
2022/05/08 00:36:04;;;;;;;1.38;0.45;;;7.80;99.90;;;;;;5062782;28;20032;-66
2022/05/08 00:38:30;;;;;;;0.88;0.30;;;7.70;99.90;;;;;;5063936;28;20022;-67
2022/05/08 00:40:56;;;;;;;0.45;0.30;;;7.60;99.90;;;;;;5063097;28;20036;-67
2022/05/08 00:43:31;;;;;;;0.38;0.20;;;7.50;99.90;;;;;;5063328;28;20032;-67
2022/05/08 00:45:58;;;;;;;0.80;0.30;;;7.50;99.90;;;;;;5063923;28;20033;-67
2022/05/08 00:48:24;;;;;;;1.20;0.40;;;7.50;99.90;;;;;;5061245;28;20092;-67
2022/05/08 00:50:53;;;;;;;0.38;0.30;;;7.30;99.90;;;;;;5063338;28;20075;-67
2022/05/08 00:53:19;;;;;;;0.95;0.30;;;7.30;99.90;;;;;;5062296;28;20061;-67
2022/05/08 00:55:46;;;;;;;0.77;0.30;;;7.20;99.90;;;;;;5063461;28;20456;-68
2022/05/08 00:58:11;;;;;;;1.13;0.30;;;7.10;99.90;;;;;;5062520;28;20047;-68
2022/05/08 01:00:37;;;;;;;6.88;1.00;;;7.10;99.90;;;;;;5063101;28;20080;-68
2022/05/08 01:03:03;;;;;;;1.13;0.30;;;7.10;99.90;;;;;;5063483;28;20029;-67
2022/05/08 01:05:30;;;;;;;0.63;0.30;;;7.10;99.90;;;;;;5062398;28;20056;-68
2022/05/08 01:07:55;;;;;;;1.23;0.40;;;7.10;99.90;;;;;;5063501;28;20025;-67
2022/05/08 01:10:22;;;;;;;0.82;0.30;;;7.00;99.90;;;;;;5062036;28;20036;-67
2022/05/08 01:12:48;;;;;;;0.38;0.28;;;7.00;99.90;;;;;;5061661;28;20048;-67
2022/05/08 01:15:15;;;;;;;0.52;0.30;;;7.00;99.90;;;;;;5060814;28;20040;-68
2022/05/08 01:17:41;;;;;;;0.47;0.30;;;6.90;99.90;;;;;;5062498;28;20072;-67
2022/05/08 01:20:08;;;;;;;0.32;0.28;;;6.80;99.90;;;;;;5061181;28;20115;-67
2022/05/08 01:22:34;;;;;;;1.10;0.30;;;6.80;99.90;;;;;;5060225;28;20453;-67
2022/05/08 01:25:03;;;;;;;0.20;0.20;;;6.80;99.90;;;;;;5063327;28;20029;-67
2022/05/08 01:27:29;;;;;;;0.28;0.20;;;6.70;99.90;;;;;;5061752;28;20389;-67
2022/05/08 01:29:55;;;;;;;0.52;0.30;;;6.70;99.90;;;;;;5063020;28;20035;-67
2022/05/08 01:32:20;;;;;;;1.10;0.40;;;6.60;99.90;;;;;;5060405;28;20043;-67
2022/05/08 01:34:46;;;;;;;0.82;0.30;;;6.60;99.90;;;;;;5062546;28;20048;-67
2022/05/08 01:37:12;;;;;;;1.23;0.40;;;6.50;99.90;;;;;;5062712;28;20051;-67
2022/05/08 01:39:38;;;;;;;0.57;0.30;;;6.50;99.90;;;;;;5061723;28;20025;-67
2022/05/08 01:42:06;;;;;;;1.02;0.30;;;6.50;99.90;;;;;;5062934;28;20033;-67
2022/05/08 01:44:32;;;;;;;0.85;0.30;;;6.40;99.90;;;;;;5061405;28;20035;-67
2022/05/08 01:49:42;;;;;;;0.60;0.30;;;6.40;99.90;;;;;;5062042;28;20047;-67
2022/05/08 01:52:08;;;;;;;0.60;0.28;;;6.30;99.90;;;;;;5061259;28;20787;-67
2022/05/08 01:54:34;;;;;;;1.17;0.30;;;6.30;99.90;;;;;;5061360;28;20154;-67
2022/05/08 01:57:00;;;;;;;0.93;0.30;;;6.30;99.90;;;;;;5059976;28;20505;-67
2022/05/08 01:59:25;;;;;;;0.73;0.30;;;6.30;99.90;;;;;;5062460;28;20025;-67
2022/05/08 02:01:52;;;;;;;0.52;0.30;;;6.20;99.90;;;;;;5061270;28;20092;-67
2022/05/08 02:04:18;;;;;;;0.52;0.30;;;6.10;99.90;;;;;;5062028;28;20025;-67
2022/05/08 02:06:44;;;;;;;0.20;0.20;;;6.10;99.90;;;;;;5061314;28;20017;-66
2022/05/08 02:09:11;;;;;;;0.82;0.30;;;6.10;99.90;;;;;;5061669;28;20048;-67
2022/05/08 02:11:36;;;;;;;0.30;0.30;;;6.00;99.90;;;;;;5060846;28;20071;-67
2022/05/08 02:14:02;;;;;;;1.13;0.30;;;6.00;99.90;;;;;;5060963;28;20025;-67
2022/05/08 02:16:29;;;;;;;0.98;0.30;;;6.00;99.90;;;;;;5060767;28;20025;-67
2022/05/08 02:18:55;;;;;;;0.20;0.20;;;6.00;99.90;;;;;;5060501;28;20132;-67
2022/05/08 02:21:21;;;;;;;0.73;0.30;;;6.00;99.90;;;;;;5043558;28;20017;-67
2022/05/08 02:23:47;;;;;;;1.13;0.32;;;6.00;99.90;;;;;;5061059;28;20052;-66
2022/05/08 02:26:13;;;;;;;0.88;0.30;;;5.90;99.90;;;;;;5061458;28;20028;-68
2022/05/08 02:28:41;;;;;;;0.95;0.30;;;5.80;99.90;;;;;;5061644;28;20021;-67
2022/05/08 02:31:07;;;;;;;0.57;0.30;;;5.80;99.90;;;;;;5060763;28;20041;-67
2022/05/08 02:33:33;;;;;;;0.57;0.30;;;5.80;99.90;;;;;;5060166;28;20063;-66
2022/05/08 02:35:59;;;;;;;0.63;0.28;;;5.80;99.90;;;;;;5060386;28;20029;-67
2022/05/08 02:38:25;;;;;;;1.30;0.38;;;5.80;99.90;;;;;;5043676;28;20032;-67
2022/05/08 02:40:51;;;;;;;0.28;0.20;;;5.70;99.90;;;;;;5060575;28;20088;-67
2022/05/08 02:43:20;;;;;;;1.15;0.35;;;5.70;99.90;;;;;;5061276;28;20029;-68
2022/05/08 02:45:49;;;;;;;1.08;0.32;;;5.80;99.90;;;;;;5061341;28;20033;-67
2022/05/08 02:48:15;;;;;;;0.95;0.40;;;5.70;99.90;;;;;;5059060;28;20052;-67
2022/05/08 02:50:40;;;;;;;1.92;0.43;;;5.70;99.90;;;;;;5061223;28;20080;-67
2022/05/08 02:53:06;;;;;;;0.88;0.30;;;5.60;99.90;;;;;;5058826;28;20033;-68
2022/05/08 02:58:34;;;;;;;0.47;0.30;;;5.60;99.90;;;;;;5060716;28;20040;-67
2022/05/08 03:01:01;;;;;;;1.60;0.40;;;5.60;99.90;;;;;;5060623;28;20028;-67
2022/05/08 03:03:28;;;;;;;1.33;0.40;;;5.60;99.90;;;;;;5061616;28;20028;-67
2022/05/08 03:05:53;;;;;;;1.10;0.30;;;5.50;99.90;;;;;;5059989;28;20028;-67
2022/05/08 03:08:20;;;;;;;0.90;0.32;;;5.50;99.90;;;;;;5061219;28;20056;-67
2022/05/08 03:13:36;;;;;;;1.33;0.32;;;5.50;99.90;;;;;;5060526;28;20075;-67
2022/05/08 03:16:07;;;;;;;1.00;0.35;;;5.50;99.90;;;;;;5061327;28;20032;-66
2022/05/08 03:18:34;;;;;;;0.75;0.30;;;5.40;99.90;;;;;;5060004;28;20033;-66
2022/05/08 03:21:01;;;;;;;0.93;0.35;;;5.40;99.90;;;;;;5060616;28;20036;-67
2022/05/08 03:23:28;;;;;;;1.95;0.47;;;5.40;99.90;;;;;;5058417;28;20102;-66
2022/05/08 03:25:54;;;;;;;1.45;0.40;;;5.40;99.90;;;;;;5060838;28;20033;-66
2022/05/08 03:28:20;;;;;;;1.63;0.40;;;5.40;99.90;;;;;;5060426;28;20025;-66
2022/05/08 03:30:45;;;;;;;1.05;0.40;;;5.40;99.90;;;;;;5060257;28;20045;-66
2022/05/08 03:33:12;;;;;;;2.13;0.45;;;5.30;99.90;;;;;;5061048;28;20095;-67
2022/05/08 03:35:38;;;;;;;1.02;0.30;;;5.30;99.90;;;;;;5059744;28;20037;-66
2022/05/08 03:38:05;;;;;;;1.58;0.40;;;5.30;99.90;;;;;;5060954;28;20021;-66
2022/05/08 03:40:32;;;;;;;0.90;0.30;;;5.30;99.90;;;;;;5059738;28;20025;-67
2022/05/08 03:42:58;;;;;;;1.40;0.40;;;5.30;99.90;;;;;;5060804;28;20089;-67
2022/05/08 03:45:24;;;;;;;0.98;0.30;;;5.30;99.90;;;;;;5061418;28;20526;-67
2022/05/08 03:47:52;;;;;;;1.35;0.40;;;5.30;99.90;;;;;;5064124;28;20020;-66
2022/05/08 03:50:18;;;;;;;0.95;0.30;;;5.30;99.90;;;;;;5062951;28;20128;-67
2022/05/08 03:52:44;;;;;;;1.40;0.38;;;5.30;99.90;;;;;;5063530;28;20028;-67
2022/05/08 03:55:11;;;;;;;0.55;0.30;;;5.30;99.90;;;;;;5064741;28;20021;-67
2022/05/08 03:57:37;;;;;;;1.77;0.47;;;5.20;99.90;;;;;;5063668;28;20025;-67
2022/05/08 04:00:04;;;;;;;1.13;0.38;;;5.30;99.90;;;;;;5063174;28;20079;-67
2022/05/08 04:02:29;;;;;;;1.27;0.40;;;5.30;99.90;;;;;;5063960;28;20024;-67
2022/05/08 04:04:55;;;;;;;0.88;0.30;;;5.30;99.90;;;;;;5063912;28;20056;-67
2022/05/08 04:07:21;;;;;;;1.25;0.40;;;5.30;99.90;;;;;;5063131;28;20025;-66
2022/05/08 04:09:46;;;;;;;0.52;0.30;;;5.30;99.90;;;;;;5063448;28;20077;-66
2022/05/08 04:12:12;;;;;;;1.08;0.30;;;5.30;99.90;;;;;;5064548;28;20061;-66
2022/05/08 04:14:38;;;;;;;1.20;0.40;;;5.30;99.90;;;;;;5061955;28;20025;-66
2022/05/08 04:17:04;;;;;;;1.15;0.32;;;5.30;99.90;;;;;;5062720;28;20040;-66
2022/05/08 04:19:30;;;;;;;1.50;0.40;;;5.40;99.90;;;;;;5063528;28;20045;-67
2022/05/08 04:24:16;;;;;;;0.80;0.30;;;5.40;99.90;;;;;;5063121;28;20036;-67
2022/05/08 04:24:42;;;;;;;0.63;0.22;;;5.40;99.90;;;;;;5064297;28;20037;-67
2022/05/08 04:27:07;;;;;;;1.27;0.30;;;5.40;99.90;;;;;;5062791;28;20396;-67
2022/05/08 04:29:33;;;;;;;1.15;0.30;;;5.40;99.90;;;;;;5064032;28;20092;-67
2022/05/08 04:31:59;;;;;;;1.13;0.32;;;5.50;99.90;;;;;;5062673;28;20041;-66
2022/05/08 04:34:25;;;;;;;1.52;0.40;;;5.50;99.90;;;;;;5063834;28;20040;-67
2022/05/08 04:36:50;;;;;;;1.08;0.30;;;5.60;99.90;;;;;;5063303;28;20461;-66
2022/05/08 04:39:17;;;;;;;0.90;0.30;;;5.60;99.90;;;;;;5061907;28;20025;-67
2022/05/08 04:41:43;;;;;;;1.10;0.35;;;5.70;99.90;;;;;;5064024;28;20424;-65
2022/05/08 04:44:09;;;;;;;1.42;0.38;;;5.80;99.90;;;;;;5062601;28;20029;-68
2022/05/08 04:46:35;;;;;;;0.95;0.38;;;5.90;99.90;;;;;;5063762;28;20032;-68
2022/05/08 04:49:00;;;;;;;1.02;0.30;;;5.90;99.90;;;;;;5061313;28;20031;-68
2022/05/08 04:51:26;;;;;;;1.35;0.40;;;6.00;99.90;;;;;;5062797;28;20017;-67
2022/05/08 04:53:52;;;;;;;1.15;0.30;;;6.00;99.90;;;;;;5063011;28;20027;-68
2022/05/08 04:56:18;;;;;;;1.15;0.35;;;6.00;99.90;;;;;;5061667;28;20025;-67
2022/05/08 04:58:44;;;;;;;0.30;0.25;;;6.10;99.90;;;;;;5063010;28;20032;-68
2022/05/08 05:01:10;;;;;;;1.00;0.30;;;6.20;99.90;;;;;;5062438;28;20071;-67
2022/05/08 05:03:36;;;;;;;1.23;0.35;;;6.20;99.90;;;;;;5063372;28;20556;-67
2022/05/08 05:06:02;;;;;;;1.63;0.40;;;6.30;99.90;;;;;;5062069;28;20037;-68
2022/05/08 05:08:28;;;;;;;1.55;0.40;;;6.40;99.90;;;;;;5063100;28;20081;-67
2022/05/08 05:10:53;;;;;;;0.70;0.30;;;6.40;99.90;;;;;;5062504;28;20036;-66
2022/05/08 05:13:19;;;;;;;0.98;0.30;;;6.50;99.90;;;;;;5061287;28;20160;-66
2022/05/08 05:15:45;;;;;;;1.30;0.40;;;6.60;99.90;;;;;;5063267;28;20068;-65
2022/05/08 05:18:11;;;;;;;1.17;0.35;;;6.60;99.90;;;;;;5061685;28;20048;-65
2022/05/08 05:20:36;;;;;;;0.55;0.30;;;6.70;99.90;;;;;;5062825;28;20045;-66
2022/05/08 05:23:02;;;;;;;0.98;0.63;;;6.80;99.90;;;;;;5060618;28;20033;-65
2022/05/08 05:25:29;;;;;;;0.47;0.30;;;6.90;99.90;;;;;;5061641;28;20025;-66
2022/05/08 05:27:55;;;;;;;1.15;0.40;;;6.90;99.90;;;;;;5061983;28;20894;-66
2022/05/08 05:30:21;;;;;;;1.30;0.40;;;7.00;99.90;;;;;;5062436;28;20021;-65
2022/05/08 05:32:47;;;;;;;0.30;0.30;;;7.20;99.90;;;;;;5061195;28;20048;-65
2022/05/08 05:35:13;;;;;;;1.05;0.30;;;7.20;99.90;;;;;;5061793;28;20067;-65
2022/05/08 05:37:39;;;;;;;0.95;0.40;;;7.40;99.90;;;;;;5062967;28;20032;-65
2022/05/08 05:40:09;;;;;;;0.90;0.30;;;7.50;99.90;;;;;;5061617;28;20025;-66
2022/05/08 05:42:35;;;;;;;0.60;0.30;;;7.70;99.90;;;;;;5062696;28;20389;-66
2022/05/08 05:45:01;;;;;;;0.63;0.30;;;7.80;99.90;;;;;;5061729;28;20552;-66
2022/05/08 05:50:11;;;;;;;0.85;0.30;;;8.20;99.90;;;;;;5062881;28;20071;-67
2022/05/08 05:52:37;;;;;;;0.63;0.30;;;8.60;99.90;;;;;;5060972;28;20033;-66
2022/05/08 05:55:06;;;;;;;1.02;0.30;;;8.90;99.90;;;;;;5062672;28;20515;-66
2022/05/08 05:57:36;;;;;;;0.65;0.30;;;9.30;99.90;;;;;;5061106;28;20163;-66
2022/05/08 06:00:15;;;;;;;1.02;0.40;;;9.80;99.90;;;;;;5062441;28;20041;-66
2022/05/08 06:02:43;;;;;;;0.55;0.30;;;10.10;99.90;;;;;;5062114;28;20056;-66
2022/05/08 06:05:14;;;;;;;0.28;0.25;;;10.90;99.90;;;;;;5061224;28;20021;-66
2022/05/08 06:07:41;;;;;;;0.22;0.20;;;11.30;99.90;;;;;;5061258;28;20052;-66
2022/05/08 06:10:08;;;;;;;0.85;0.30;;;11.70;99.90;;;;;;5060810;28;20033;-66
2022/05/08 06:12:35;;;;;;;0.28;0.20;;;12.40;99.90;;;;;;5060591;28;20044;-67
2022/05/08 06:15:00;;;;;;;0.98;0.30;;;12.90;99.90;;;;;;5059641;28;20055;-66
2022/05/08 06:17:26;;;;;;;0.30;0.20;;;13.30;99.90;;;;;;5061330;28;20053;-66
2022/05/08 06:19:52;;;;;;;0.47;0.28;;;13.70;99.90;;;;;;5062127;28;20027;-66
2022/05/08 06:22:18;;;;;;;0.25;0.20;;;13.90;99.90;;;;;;5060638;28;20080;-66
2022/05/08 06:24:43;;;;;;;0.52;0.22;;;14.00;99.90;;;;;;5062348;28;20032;-66
2022/05/08 06:27:09;;;;;;;0.22;0.20;;;14.30;99.90;;;;;;5061074;28;20075;-67
2022/05/08 06:29:35;;;;;;;0.60;0.20;;;14.60;99.90;;;;;;5064265;28;20039;-66
2022/05/08 06:32:01;;;;;;;0.40;0.20;;;14.90;99.90;;;;;;5062984;28;20037;-66
2022/05/08 06:34:27;;;;;;;0.52;0.28;;;15.60;99.90;;;;;;5064056;28;20446;-66
2022/05/08 06:36:53;;;;;;;0.20;0.20;;;15.70;99.90;;;;;;5063861;28;20104;-66
2022/05/08 06:39:19;;;;;;;0.25;0.20;;;16.00;99.50;;;;;;5045258;28;20033;-66
2022/05/08 06:41:45;;;;;;;0.57;0.22;;;15.60;96.90;;;;;;5061692;28;20131;-66
2022/05/08 06:44:10;;;;;;;0.38;0.20;;;15.60;98.10;;;;;;5059044;28;20032;-67
2022/05/08 06:46:36;;;;;;;0.93;0.47;;;15.20;99.90;;;;;;5043636;28;20059;-67
2022/05/08 06:49:09;;;;;;;0.90;0.32;;;15.60;99.90;;;;;;5059138;28;20017;-67
2022/05/08 06:51:35;;;;;;;0.90;0.35;;;15.10;99.90;;;;;;5060696;28;20117;-66
2022/05/08 06:54:01;;;;;;;0.35;0.20;;;15.70;94.50;;;;;;5059653;28;20080;-67
2022/05/08 06:56:30;;;;;;;0.98;0.30;;;15.20;99.90;;;;;;5060440;28;20032;-66
2022/05/08 07:01:42;;;;;;;0.38;0.20;;;13.90;99.90;;;;;;5060523;28;20101;-67
2022/05/08 07:04:10;;;;;;;0.50;0.20;;;13.80;99.90;;;;;;5061319;28;20021;-66
2022/05/08 07:06:36;;;;;;;0.47;0.22;;;13.70;99.90;;;;;;5060407;28;20029;-66
2022/05/08 07:09:02;;;;;;;0.63;0.20;;;13.90;99.90;;;;;;5059435;28;20025;-67
2022/05/08 07:11:30;;;;;;;1.15;0.35;;;14.00;99.90;;;;;;5061242;28;20025;-66
2022/05/08 07:13:59;;;;;;;0.40;0.20;;;14.20;99.90;;;;;;5059909;28;20044;-66
2022/05/08 07:16:26;;;;;;;0.40;0.20;;;13.90;99.90;;;;;;5061126;28;20052;-67
2022/05/08 07:18:51;;;;;;;0.68;0.22;;;13.70;99.90;;;;;;5059782;28;20072;-67
2022/05/08 07:21:19;;;;;;;0.77;0.30;;;13.50;99.90;;;;;;5065438;28;20037;-67
2022/05/08 07:23:45;;;;;;;0.60;0.20;;;14.20;99.90;;;;;;5065598;28;20040;-67
2022/05/08 07:26:11;;;;;;;0.57;0.20;;;15.00;99.90;;;;;;5067349;28;20400;-67
2022/05/08 07:28:37;;;;;;;0.22;0.20;;;15.40;99.50;;;;;;5067839;28;20029;-67
2022/05/08 07:31:03;;;;;;;1.15;0.32;;;15.50;93.10;;;;;;5066699;28;20117;-67
2022/05/08 07:33:35;;;;;;;0.30;0.30;;;15.50;93.00;;;;;;5067781;28;20029;-67
2022/05/08 07:36:13;;;;;;;1.05;0.80;;;15.60;97.90;;;;;;5065042;28;20045;-67
2022/05/08 07:38:48;;;;;;;0.65;0.20;;;15.80;93.30;;;;;;5067456;28;20025;-67
2022/05/08 07:41:16;;;;;;;0.88;0.30;;;16.10;85.60;;;;;;5067350;28;20025;-67
2022/05/08 07:43:45;;;;;;;0.30;0.10;;;16.60;72.20;;;;;;5066470;28;20025;-67
2022/05/08 07:46:12;;;;;;;1.13;0.30;;;16.70;91.60;;;;;;5066012;28;20547;-67
2022/05/08 07:48:37;;;;;;;0.73;0.20;;;16.80;71.70;;;;;;5064853;28;20025;-66
2022/05/08 07:51:04;;;;;;;0.70;0.20;;;17.30;73.40;;;;;;5067113;28;20039;-65
2022/05/08 07:53:31;;;;;;;0.55;0.20;;;17.50;68.60;;;;;;5066354;28;20082;-66
2022/05/08 07:55:58;;;;;;;0.40;0.20;;;17.10;66.70;;;;;;5065677;28;20089;-66
2022/05/08 07:58:24;;;;;;;0.70;0.20;;;17.10;66.00;;;;;;5067131;28;20056;-66
2022/05/08 08:00:54;;;;;;;0.40;0.15;;;18.10;72.70;;;;;;5066276;28;20036;-66
2022/05/08 08:03:24;;;;;;;0.28;0.13;;;18.10;69.30;;;;;;5067744;28;20036;-65
2022/05/08 08:05:51;;;;;;;0.10;0.10;;;18.50;62.60;;;;;;5066289;28;20021;-66
2022/05/08 08:08:17;;;;;;;0.50;0.22;;;19.50;62.50;;;;;;5067325;28;20021;-66
2022/05/08 08:10:44;;;;;;;0.25;0.10;;;19.30;57.70;;;;;;5066460;28;20143;-66
2022/05/08 08:13:10;;;;;;;0.50;0.20;;;19.70;57.40;;;;;;5066957;28;20082;-66
2022/05/08 08:15:36;;;;;;;0.85;0.70;;;19.60;56.70;;;;;;5067072;28;20059;-66
2022/05/08 08:18:01;;;;;;;0.10;0.10;;;19.90;54.90;;;;;;5066005;28;20037;-66
2022/05/08 08:20:27;;;;;;;0.47;0.20;;;18.80;54.70;;;;;;5067546;28;20059;-66
2022/05/08 08:22:53;;;;;;;0.15;0.10;;;19.50;55.00;;;;;;5064516;28;20369;-66
2022/05/08 08:25:20;;;;;;;0.60;0.20;;;20.20;52.60;;;;;;5065860;28;20484;-66
2022/05/08 08:27:46;;;;;;;0.47;0.17;;;20.30;51.70;;;;;;5066225;28;20025;-66
2022/05/08 08:30:13;;;;;;;0.40;0.20;;;21.10;50.90;;;;;;5066823;28;20040;-66
2022/05/08 08:32:38;;;;;;;0.10;0.10;;;21.30;50.40;;;;;;5063343;28;20045;-66
2022/05/08 08:35:05;;;;;;;0.10;0.10;;;21.60;48.90;;;;;;5063152;28;20049;-66
2022/05/08 08:37:30;;;;;;;0.20;0.10;;;21.50;49.40;;;;;;5063987;28;20071;-66
2022/05/08 08:39:56;;;;;;;0.10;0.10;;;21.50;47.60;;;;;;5062692;28;20032;-66
2022/05/08 08:42:28;;;;;;;0.28;0.10;;;20.90;48.10;;;;;;5063993;28;20087;-66
2022/05/08 08:47:54;;;;;;;0.10;0.10;;;21.30;47.40;;;;;;5063315;28;20043;-66
2022/05/08 08:50:25;;;;;;;0.28;0.15;;;21.50;50.10;;;;;;5063871;28;20436;-66
2022/05/08 08:52:51;;;;;;;0.35;0.20;;;20.40;48.60;;;;;;5060817;28;20040;-66
2022/05/08 08:55:17;;;;;;;0.17;0.10;;;20.60;48.80;;;;;;5063404;28;20051;-66
2022/05/08 08:57:46;;;;;;;0.43;0.10;;;19.70;50.90;;;;;;5062587;28;20017;-66
2022/05/08 09:00:13;;;;;;;0.17;0.10;;;19.40;50.30;;;;;;5063222;28;20029;-68
2022/05/08 09:02:39;;;;;;;0.57;0.30;;;19.80;50.50;;;;;;5061867;28;20037;-67
2022/05/08 09:05:07;;;;;;;0.28;0.10;;;20.80;54.10;;;;;;5062507;28;20028;-67
2022/05/08 09:07:46;;;;;;;0.57;0.20;;;19.80;50.70;;;;;;5063455;28;20083;-68
2022/05/08 09:10:11;;;;;;;0.17;0.10;;;19.70;53.60;;;;;;5062152;28;20063;-66
2022/05/08 09:12:40;;;;;;;0.28;0.10;;;19.10;53.80;;;;;;5062950;28;20404;-66
2022/05/08 09:15:28;;;;;;;0.47;0.10;;;19.20;52.90;;;;;;5062511;28;20017;-66
2022/05/08 09:18:09;;;;;;;0.28;0.10;;;19.00;53.50;;;;;;5062043;28;20142;-66
2022/05/08 09:20:40;;;;;;;0.17;0.10;;;18.50;54.70;;;;;;5061467;28;20389;-67
2022/05/08 09:23:19;;;;;;;0.10;0.10;;;18.40;54.90;;;;;;5060706;28;20108;-66
2022/05/08 09:25:50;;;;;;;0.30;0.10;;;18.60;54.70;;;;;;5062549;28;20035;-65
2022/05/08 09:28:20;;;;;;;0.65;0.20;;;18.60;55.60;;;;;;5062824;28;20032;-65
2022/05/08 09:30:57;;;;;;;0.28;0.10;;;19.00;56.80;;;;;;5062330;28;20103;-66
2022/05/08 09:33:37;;;;;;;0.38;0.15;;;18.60;54.60;;;;;;5062985;28;20483;-66
2022/05/08 09:36:08;;;;;;;0.22;0.13;;;18.20;54.60;;;;;;5060389;28;20031;-66
2022/05/08 09:39:00;;;;;;;0.65;0.30;;;18.60;53.70;;;;;;5062447;28;20033;-66
2022/05/08 09:41:29;;;;;;;0.30;0.10;;;19.00;55.60;;;;;;5063146;28;20045;-66
2022/05/08 09:44:12;;;;;;;0.10;0.10;;;18.70;51.70;;;;;;5061308;28;20025;-66
2022/05/08 09:46:39;;;;;;;0.10;0.10;;;19.80;53.70;;;;;;5062454;28;20032;-66
2022/05/08 09:49:07;;;;;;;0.10;0.10;;;19.60;50.70;;;;;;5061677;28;20025;-66
2022/05/08 09:51:33;;;;;;;0.03;0.03;;;20.00;50.80;;;;;;5061688;28;20576;-66
2022/05/08 09:54:00;;;;;;;0.10;0.10;;;20.20;50.10;;;;;;5062227;28;20033;-66
2022/05/08 09:56:28;;;;;;;0.13;0.10;;;20.40;49.90;;;;;;5061675;28;20025;-66
2022/05/08 09:58:53;;;;;;;0.17;0.10;;;20.40;48.40;;;;;;5062512;28;20033;-66
2022/05/08 10:01:20;;;;;;;0.80;0.22;;;20.70;50.90;;;;;;5061208;28;20526;-67
2022/05/08 10:03:46;;;;;;;0.63;0.32;;;21.20;50.20;;;;;;5062192;28;20036;-67
2022/05/08 10:06:13;;;;;;;0.10;0.10;;;21.60;48.40;;;;;;5061112;28;20035;-66
2022/05/08 10:08:41;;;;;;;0.10;0.10;;;21.30;45.90;;;;;;5061699;28;20032;-66
2022/05/08 10:13:57;;;;;;;0.00;0.00;;;23.00;48.10;;;;;;5060957;28;20063;-66
2022/05/08 10:16:45;;;;;;;0.10;0.10;;;22.90;44.40;;;;;;5062074;28;20021;-66
2022/05/08 10:19:22;;;;;;;0.20;0.10;;;23.00;43.90;;;;;;5063415;28;20094;-67
2022/05/08 10:21:56;;;;;;;0.10;0.10;;;21.60;41.20;;;;;;5060737;28;20085;-67
2022/05/08 10:24:47;;;;;;;0.08;0.08;;;22.20;42.80;;;;;;5062009;28;20025;-66
2022/05/08 10:27:22;;;;;;;1.42;0.43;;;22.40;46.20;;;;;;5060693;28;20040;-68
2022/05/08 10:29:50;;;;;;;0.10;0.10;;;21.10;43.30;;;;;;5061492;28;20057;-66
2022/05/08 10:32:27;;;;;;;0.10;0.10;;;22.20;46.10;;;;;;5060925;28;20385;-66
2022/05/08 10:35:14;;;;;;;0.17;0.10;;;22.20;46.60;;;;;;5060793;28;20035;-66
2022/05/08 10:37:43;;;;;;;0.10;0.10;;;22.50;46.60;;;;;;5061897;28;20044;-66
2022/05/08 10:40:24;;;;;;;0.10;0.10;;;22.80;45.10;;;;;;5060456;28;20090;-67
2022/05/08 10:43:14;;;;;;;0.10;0.08;;;23.10;42.00;;;;;;5061293;28;20032;-66
2022/05/08 10:45:43;;;;;;;0.10;0.10;;;22.10;39.60;;;;;;5061407;28;20421;-66
2022/05/08 10:48:25;;;;;;;0.03;0.03;;;22.90;42.00;;;;;;5060392;28;20104;-66
2022/05/08 10:50:56;;;;;;;0.17;0.10;;;23.00;41.60;;;;;;5060869;28;20112;-66
2022/05/08 10:53:32;;;;;;;1.55;0.30;;;22.90;42.80;;;;;;5058763;28;20033;-66
2022/05/08 10:56:09;;;;;;;0.03;0.03;;;22.70;43.80;;;;;;5060211;28;20039;-67
2022/05/08 10:58:37;;;;;;;0.00;0.00;;;22.70;43.00;;;;;;5061408;28;20029;-67
2022/05/08 11:01:05;;;;;;;0.10;0.10;;;22.80;42.40;;;;;;5060114;28;20068;-66
2022/05/08 11:03:33;;;;;;;0.00;0.00;;;22.40;42.50;;;;;;5061303;28;20159;-66
2022/05/08 11:05:59;;;;;;;0.00;0.00;;;22.50;40.60;;;;;;5059955;28;20025;-66
2022/05/08 11:08:33;;;;;;;0.10;0.10;;;22.10;41.30;;;;;;5059867;28;20576;-67
2022/05/08 11:11:02;;;;;;;0.10;0.10;;;22.50;41.80;;;;;;5060611;28;20524;-66
2022/05/08 11:13:38;;;;;;;0.00;0.00;;;22.40;40.70;;;;;;5060260;28;20033;-66
2022/05/08 11:16:04;;;;;;;0.22;0.10;;;22.50;40.70;;;;;;5059965;28;20060;-66
2022/05/08 11:18:30;;;;;;;0.08;0.00;;;22.50;41.10;;;;;;5059695;28;20049;-66
2022/05/08 11:21:01;;;;;;;0.20;0.10;;;23.10;41.70;;;;;;5060551;28;20032;-66
2022/05/08 11:23:41;;;;;;;0.00;0.00;;;22.60;41.60;;;;;;5059963;28;20097;-66
2022/05/08 11:26:09;;;;;;;0.10;0.10;;;22.80;41.20;;;;;;5060587;28;20017;-65
2022/05/08 11:28:37;;;;;;;0.00;0.00;;;23.00;42.30;;;;;;5061228;28;20075;-66
2022/05/08 11:31:16;;;;;;;0.00;0.00;;;22.50;39.50;;;;;;5059952;28;20040;-66
2022/05/08 11:36:29;;;;;;;0.10;0.05;;;23.50;42.30;;;;;;5060560;28;20433;-67
2022/05/08 11:39:05;;;;;;;0.00;0.00;;;22.60;38.80;;;;;;5060221;28;20021;-67
2022/05/08 11:41:36;;;;;;;0.10;0.10;;;22.20;41.30;;;;;;5061155;28;20029;-66
2022/05/08 11:44:14;;;;;;;;;;;23.40;42.10;;;;;;5060088;28;20029;-66
2022/05/08 11:46:40;;;;;;;0.00;0.00;;;23.60;41.20;;;;;;5059611;28;19979;-67
2022/05/08 11:49:16;;;;;;;0.03;0.00;;;24.00;40.70;;;;;;5060062;28;20063;-67
2022/05/08 11:51:44;;;;;;;0.00;0.00;;;23.50;40.30;;;;;;5058074;28;20048;-67
2022/05/08 11:54:30;;;;;;;0.22;0.10;;;23.20;40.50;;;;;;5060926;28;20060;-66
2022/05/08 11:57:13;;;;;;;0.00;0.00;;;23.30;41.70;;;;;;5059456;28;20063;-67
2022/05/08 11:59:40;;;;;;;0.05;0.05;;;23.30;40.60;;;;;;5061004;28;20025;-66
2022/05/08 12:02:06;;;;;;;0.10;0.10;;;23.60;42.40;;;;;;5060225;28;20020;-66
2022/05/08 12:04:33;;;;;;;0.10;0.10;;;23.10;39.80;;;;;;5060323;28;20033;-64
2022/05/08 12:07:05;;;;;;;0.03;0.03;;;24.00;40.60;;;;;;5062782;28;20036;-65
2022/05/08 12:09:49;;;;;;;0.00;0.00;;;23.80;39.30;;;;;;5063444;28;20025;-66
2022/05/08 12:12:34;;;;;;;0.20;0.10;;;23.80;38.60;;;;;;5064431;28;20112;-66
2022/05/08 12:15:07;;;;;;;0.00;0.00;;;22.80;40.00;;;;;;5063679;28;20059;-66
2022/05/08 12:17:42;;;;;;;0.10;0.03;;;23.00;42.00;;;;;;5063573;28;20842;-66
2022/05/08 12:20:16;;;;;;;0.00;0.00;;;23.00;39.20;;;;;;5064610;28;20108;-66
2022/05/08 12:22:44;;;;;;;0.00;0.00;;;22.90;42.60;;;;;;5062516;28;20040;-67
2022/05/08 12:25:11;;;;;;;0.17;0.10;;;22.50;41.20;;;;;;5064262;28;20029;-67
2022/05/08 12:27:37;;;;;;;0.10;0.10;;;22.10;41.10;;;;;;5061677;28;20412;-66
2022/05/08 12:30:05;;;;;;;0.17;0.10;;;22.10;40.10;;;;;;5063785;28;20025;-66
2022/05/08 12:32:32;;;;;;;0.00;0.00;;;22.30;40.10;;;;;;5063875;28;20040;-66
2022/05/08 12:34:58;;;;;;;0.08;0.00;;;22.60;42.50;;;;;;5063057;28;20031;-67
2022/05/08 12:37:24;;;;;;;0.17;0.10;;;23.10;41.90;;;;;;5062987;28;20053;-67
2022/05/08 12:39:50;;;;;;;0.00;0.00;;;23.20;40.80;;;;;;5061544;28;20476;-67
2022/05/08 12:42:15;;;;;;;0.10;0.10;;;23.20;39.60;;;;;;5063800;28;20029;-67
2022/05/08 12:44:43;;;;;;;0.00;0.00;;;23.00;40.40;;;;;;5062840;28;20422;-67
2022/05/08 12:47:10;;;;;;;0.08;0.08;;;22.60;37.80;;;;;;5063554;28;20032;-67
2022/05/08 12:49:37;;;;;;;0.10;0.10;;;22.00;39.30;;;;;;5063546;28;20025;-67
2022/05/08 12:52:05;;;;;;;0.00;0.00;;;22.30;40.70;;;;;;5060687;28;20041;-67
2022/05/08 12:54:30;;;;;;;0.10;0.10;;;23.10;39.00;;;;;;5063675;28;20032;-67
2022/05/08 12:56:56;;;;;;;0.20;0.20;;;21.60;36.50;;;;;;5062311;28;20037;-66
2022/05/08 13:02:07;;;;;;;0.00;0.00;;;21.40;40.20;;;;;;5062790;28;20433;-64
2022/05/08 13:04:33;;;;;;;0.00;0.00;;;21.60;40.50;;;;;;5062935;28;20025;-65
2022/05/08 13:06:59;;;;;;;0.38;0.20;;;22.00;40.00;;;;;;5063327;28;20069;-64
2022/05/08 13:09:24;;;;;;;0.10;0.10;;;22.00;40.70;;;;;;5061124;28;20029;-64
2022/05/08 13:11:50;;;;;;;0.00;0.00;;;22.30;39.70;;;;;;5063316;28;20056;-64
2022/05/08 13:14:16;;;;;;;0.10;0.10;;;22.20;38.30;;;;;;5062108;28;20051;-64
2022/05/08 13:16:42;;;;;;;0.10;0.10;;;22.40;38.50;;;;;;5063324;28;20033;-64
2022/05/08 13:19:08;;;;;;;0.10;0.10;;;22.50;40.50;;;;;;5060203;28;20048;-64
2022/05/08 13:21:36;;;;;;;0.10;0.10;;;22.50;39.10;;;;;;5062378;28;20377;-65
2022/05/08 13:24:02;;;;;;;0.10;0.10;;;22.70;39.20;;;;;;5062874;28;20103;-65